Map

Track Data

SID SEASON NUMBER BASIN SUBBASIN NAME ISO_TIME NATURE LAT LON WMO_WIND WMO_PRES WMO_AGENCY TRACK_TYPE DIST2LAND LANDFALL IFLAG USA_AGENCY USA_ATCF_ID USA_LAT USA_LON USA_RECORD USA_STATUS USA_WIND USA_PRES USA_SSHS USA_R34_NE USA_R34_SE USA_R34_SW USA_R34_NW USA_R50_NE USA_R50_SE USA_R50_SW USA_R50_NW USA_R64_NE USA_R64_SE USA_R64_SW USA_R64_NW USA_POCI USA_ROCI USA_RMW USA_EYE TOKYO_LAT TOKYO_LON TOKYO_GRADE TOKYO_WIND TOKYO_PRES TOKYO_R50_DIR TOKYO_R50_LONG TOKYO_R50_SHORT TOKYO_R30_DIR TOKYO_R30_LONG TOKYO_R30_SHORT TOKYO_LAND CMA_LAT CMA_LON CMA_CAT CMA_WIND CMA_PRES HKO_LAT HKO_LON HKO_CAT HKO_WIND HKO_PRES NEWDELHI_LAT NEWDELHI_LON NEWDELHI_GRADE NEWDELHI_WIND NEWDELHI_PRES NEWDELHI_CI NEWDELHI_DP NEWDELHI_POCI REUNION_LAT REUNION_LON REUNION_TYPE REUNION_WIND REUNION_PRES REUNION_TNUM REUNION_CI REUNION_RMW REUNION_R34_NE REUNION_R34_SE REUNION_R34_SW REUNION_R34_NW REUNION_R50_NE REUNION_R50_SE REUNION_R50_SW REUNION_R50_NW REUNION_R64_NE REUNION_R64_SE REUNION_R64_SW REUNION_R64_NW BOM_LAT BOM_LON BOM_TYPE BOM_WIND BOM_PRES BOM_TNUM BOM_CI BOM_RMW BOM_R34_NE BOM_R34_SE BOM_R34_SW BOM_R34_NW BOM_R50_NE BOM_R50_SE BOM_R50_SW BOM_R50_NW BOM_R64_NE BOM_R64_SE BOM_R64_SW BOM_R64_NW BOM_ROCI BOM_POCI BOM_EYE BOM_POS_METHOD BOM_PRES_METHOD NADI_LAT NADI_LON NADI_CAT NADI_WIND NADI_PRES WELLINGTON_LAT WELLINGTON_LON WELLINGTON_WIND WELLINGTON_PRES DS824_LAT DS824_LON DS824_STAGE DS824_WIND DS824_PRES TD9636_LAT TD9636_LON TD9636_STAGE TD9636_WIND TD9636_PRES TD9635_LAT TD9635_LON TD9635_WIND TD9635_PRES TD9635_ROCI NEUMANN_LAT NEUMANN_LON NEUMANN_CLASS NEUMANN_WIND NEUMANN_PRES MLC_LAT MLC_LON MLC_CLASS MLC_WIND MLC_PRES USA_GUST BOM_GUST BOM_GUST_PER REUNION_GUST REUNION_GUST_PER USA_SEAHGT USA_SEARAD_NE USA_SEARAD_SE USA_SEARAD_SW USA_SEARAD_NW STORM_SPEED STORM_DIR
1938046S15059 1938 16 SI MM NOT_NAMED 1938-02-14 18:00:00 NR -15.3000 58.8000 main 549 523 __________O___ -1 -15.3000 58.8000 7 6 219
1938046S15059 1938 16 SI MM NOT_NAMED 1938-02-14 21:00:00 NR -15.5346 58.6049 main 523 486 __________P___ -1 -15.5346 58.6049 7 6 217
1938046S15059 1938 16 SI MM NOT_NAMED 1938-02-15 00:00:00 NR -15.7852 58.4177 main 486 452 __________P___ -1 -15.7852 58.4177 7 6 213
1938046S15059 1938 16 SI MM NOT_NAMED 1938-02-15 03:00:00 NR -16.0683 58.2466 main 450 416 __________P___ -1 -16.0683 58.2466 7 7 206
1938046S15059 1938 16 SI MM NOT_NAMED 1938-02-15 06:00:00 NR -16.4000 58.1000 main 416 370 __________O___ -1 -16.4000 58.1000 7 8 199
1938046S15059 1938 16 SI MM NOT_NAMED 1938-02-15 09:00:00 NR -16.7883 57.9857 main 370 325 __________P___ -1 -16.7883 57.9857 7 8 193
1938046S15059 1938 16 SI MM NOT_NAMED 1938-02-15 12:00:00 NR -17.2074 57.9102 main 325 280 __________P___ -1 -17.2074 57.9102 7 8 187
1938046S15059 1938 16 SI MM NOT_NAMED 1938-02-15 15:00:00 NR -17.6227 57.8796 main 280 235 __________P___ -1 -17.6227 57.8796 7 8 0
1938046S15059 1938 16 SI MM NOT_NAMED 1938-02-15 18:00:00 NR -18.0000 57.9000 main 235 203 __________O___ -1 -18.0000 57.9000 7 7 173
1938046S15059 1938 16 SI MM NOT_NAMED 1938-02-15 21:00:00 NR -18.3013 57.9744 main 203 181 __________P___ -1 -18.3013 57.9744 7 6 162
1938046S15059 1938 16 SI MM NOT_NAMED 1938-02-16 00:00:00 NR -18.5600 58.0971 main 172 154 __________P___ -1 -18.5600 58.0971 7 6 152
1938046S15059 1938 16 SI MM NOT_NAMED 1938-02-16 03:00:00 NR -18.7888 58.2464 main 154 143 __________P___ -1 -18.7888 58.2464 7 5 147
1938046S15059 1938 16 SI MM NOT_NAMED 1938-02-16 06:00:00 NR -19.0000 58.4000 main 143 130 __________O___ -1 -19.0000 58.4000 7 5 149
1938046S15059 1938 16 SI MM NOT_NAMED 1938-02-16 09:00:00 NR -19.2184 58.5211 main 130 122 __________P___ -1 -19.2184 58.5211 7 5 151
1938046S15059 1938 16 SI MM NOT_NAMED 1938-02-16 12:00:00 NR -19.4224 58.6427 main 122 118 __________P___ -1 -19.4224 58.6427 7 5 149
1938046S15059 1938 16 SI MM NOT_NAMED 1938-02-16 15:00:00 NR -19.6153 58.7680 main 127 123 __________P___ -1 -19.6153 58.7680 7 5 147
1938046S15059 1938 16 SI MM NOT_NAMED 1938-02-16 18:00:00 NR -19.8000 58.9000 main 127 123 __________O___ -1 -19.8000 58.9000 7 4 145
1938046S15059 1938 16 SI MM NOT_NAMED 1938-02-16 21:00:00 NR -19.9576 59.0190 main 129 129 __________P___ -1 -19.9576 59.0190 7 4 143
1938046S15059 1938 16 SI MM NOT_NAMED 1938-02-17 00:00:00 NR -20.1122 59.1484 main 137 137 __________P___ -1 -20.1122 59.1484 7 4 141
1938046S15059 1938 16 SI MM NOT_NAMED 1938-02-17 03:00:00 NR -20.2857 59.3036 main 156 156 __________P___ -1 -20.2857 59.3036 7 5 140
1938046S15059 1938 16 SI MM NOT_NAMED 1938-02-17 06:00:00 NR -20.5000 59.5000 main 178 178 __________O___ -1 -20.5000 59.5000 7 7 140
1938046S15059 1938 16 SI MM NOT_NAMED 1938-02-17 09:00:00 NR -20.7859 59.7445 main 205 205 __________P___ -1 -20.7859 59.7445 7 8 141
1938046S15059 1938 16 SI MM NOT_NAMED 1938-02-17 12:00:00 NR -21.1124 60.0324 main 245 245 __________P___ -1 -21.1124 60.0324 7 9 140
1938046S15059 1938 16 SI MM NOT_NAMED 1938-02-17 15:00:00 NR -21.4577 60.3541 main 301 301 __________P___ -1 -21.4577 60.3541 7 9 138
1938046S15059 1938 16 SI MM NOT_NAMED 1938-02-17 18:00:00 NR -21.8000 60.7000 main 343 343 __________O___ -1 -21.8000 60.7000 7 9 135
1938046S15059 1938 16 SI MM NOT_NAMED 1938-02-17 21:00:00 NR -22.1222 61.0614 main 394 394 __________P___ -1 -22.1222 61.0614 7 9 133
1938046S15059 1938 16 SI MM NOT_NAMED 1938-02-18 00:00:00 NR -22.4257 61.4341 main 437 437 __________P___ -1 -22.4257 61.4341 7 9 130
1938046S15059 1938 16 SI MM NOT_NAMED 1938-02-18 03:00:00 NR -22.7163 61.8146 main 489 489 __________P___ -1 -22.7163 61.8146 7 9 129
1938046S15059 1938 16 SI MM NOT_NAMED 1938-02-18 06:00:00 NR -23.0000 62.2000 main 542 __________O___ -1 -23.0000 62.2000 7 9 129

About IBTrACS Database

This database is a web-friendly format of International Best Track Archive for Climate Stewardship (IBTrACS), a global best track data archive curated by NOAA dating back to 1842.

Updated: 2021-12-01